Picture Butte, Canada
Current Conditions -  °F | °C
As of 10:00 AM on Tuesday 21 Oct 2014 (Local Time) from CYQL Reporting Station
Overcast Overcast  
Wind Chill: 13°   Ceiling: 10000
Heat Index: 13°   Visibility: 25mi
Dew Point:   Wind: 14mph
Humidity: 58%   Direction: 260°W
Pressure: 29.66"   Gusts: NA
Location:  49.87°N, 112.78°W
Report Text: CYQL 211600Z 26012KT 25SM BKN100 OVC150 13/05 A2966 RMK AC6AC2 SLP050 DENSITY ALT 3800FT
Loading
Personal Weather Stations






























Interactive Weather Map
Tropical Storm Tracking
New forecast layout! Learn more

10-Day Weather Forecast

Advertisements
Track Severe Weather on mobile